»·PEaware :: N5GL KPDX-KORS

N5GL :: KPDX-KORS

FLIGHT INFORMATION

Flight Status: Arrived
Operator: Privately registered:
United States
More flights under this callsign
Pilot: Georg L. (13308)
Aircraft: SOCATA TBM-900
(TBM9)
More flights by this aircraft type
Origin: KPDX Portland Intl
United States
Destination: KORS Orcas Island
United States
More flights between these airports :: More routes between these airports
Route: PTLD1 BTG V287 OLM V165 ISLND
File this flight plan on PilotEdge
Remarks:
Altitude:
(Current/Filed)
26,000ft
Speed:
(Current/Filed)
319kts
Departed: 29-Dec-20 12:43 PM
Arrived: 29-Dec-20 01:33 PM
Distance/Time
Traveled:
187nm/0:50
Distance/Time
To Go:
Arrived

Flight Plot

Page will automatically refresh every two minutes.

Flight plan parsing failed; only flown route is shown


Map Options




Map Legend


Flown Route
Filed Route
Departure Airport
Arrival Airport
Navaid (VOR, NDB)
Fix

Horizontal Profiles

Position Reports

Time Latitude Longitude Heading Altitude Ground
Speed
29-Dec-20 12:20 45.585266 -122.578796 299 25ft 0kts
29-Dec-20 12:20 45.585266 -122.578796 299 25ft 0kts
29-Dec-20 12:21 45.585266 -122.578796 299 25ft 0kts
29-Dec-20 12:22 45.585266 -122.578796 299 25ft 0kts
29-Dec-20 12:23 45.585266 -122.578796 299 25ft 0kts
29-Dec-20 12:24 45.585266 -122.578796 299 25ft 0kts
29-Dec-20 12:25 45.585266 -122.578797 299 25ft 0kts
29-Dec-20 12:26 45.585266 -122.578797 299 25ft 0kts
29-Dec-20 12:27 45.585266 -122.578797 299 25ft 0kts
29-Dec-20 12:28 45.585266 -122.578797 299 25ft 0kts
29-Dec-20 12:29 45.585266 -122.578797 299 25ft 0kts
29-Dec-20 12:30 45.585266 -122.578797 299 25ft 0kts
29-Dec-20 12:31 45.585266 -122.578797 299 25ft 0kts
29-Dec-20 12:32 45.585266 -122.578797 299 25ft 0kts
29-Dec-20 12:33 45.585266 -122.578797 299 25ft 0kts
29-Dec-20 12:34 45.585266 -122.578797 299 25ft 0kts
29-Dec-20 12:35 45.585268 -122.578802 299 25ft 0kts
29-Dec-20 12:36 45.585869 -122.578706 16 25ft 0kts
29-Dec-20 12:37 45.586631 -122.578425 24 25ft 8kts
29-Dec-20 12:38 45.589480 -122.585224 299 25ft 23kts
29-Dec-20 12:39 45.592626 -122.593283 297 25ft 24kts
29-Dec-20 12:40 45.594460 -122.597499 48 25ft 0kts
29-Dec-20 12:41 45.594460 -122.597499 49 25ft 0kts
29-Dec-20 12:42 45.592546 -122.589866 121 26ft 97kts
29-Dec-20 12:43 45.581806 -122.545303 99 1859ft 133kts
29-Dec-20 12:44 45.575182 -122.492919 99 4204ft 137kts
29-Dec-20 12:45 45.570312 -122.437965 63 6459ft 144kts
29-Dec-20 12:46 45.602249 -122.440685 324 8757ft 130kts
29-Dec-20 12:47 45.636068 -122.469654 318 10294ft 174kts
29-Dec-20 12:48 45.676763 -122.513899 318 11980ft 183kts
29-Dec-20 12:49 45.718004 -122.558938 319 13622ft 185kts
29-Dec-20 12:50 45.763577 -122.595267 343 14973ft 199kts
29-Dec-20 12:51 45.821754 -122.609844 343 16525ft 200kts
29-Dec-20 12:52 45.877431 -122.623721 343 18022ft 204kts
29-Dec-20 12:53 45.936014 -122.638319 343 19447ft 208kts
29-Dec-20 12:54 45.994295 -122.652868 342 21109ft 208kts
29-Dec-20 12:55 46.052366 -122.667415 342 22643ft 211kts
29-Dec-20 12:56 46.110939 -122.682115 341 24126ft 213kts
29-Dec-20 12:57 46.169688 -122.696882 341 25583ft 215kts
29-Dec-20 12:58 46.231866 -122.712621 341 26394ft 238kts
29-Dec-20 12:59 46.301743 -122.730263 342 26383ft 263kts
29-Dec-20 13:00 46.375684 -122.748972 342 26379ft 272kts
29-Dec-20 13:01 46.450586 -122.767990 342 26347ft 275kts
29-Dec-20 13:02 46.526576 -122.787341 342 26348ft 275kts
29-Dec-20 13:03 46.602466 -122.806726 342 26350ft 276kts
29-Dec-20 13:04 46.678055 -122.826089 342 26347ft 276kts
29-Dec-20 13:05 46.753855 -122.845564 342 26342ft 276kts
29-Dec-20 13:06 46.829799 -122.865132 341 26343ft 276kts
29-Dec-20 13:07 46.905652 -122.884734 341 26340ft 277kts
29-Dec-20 13:08 46.982552 -122.900015 355 26338ft 288kts
29-Dec-20 13:09 47.063392 -122.889321 355 26288ft 287kts
29-Dec-20 13:10 47.143069 -122.878441 355 26296ft 286kts
29-Dec-20 13:11 47.224995 -122.867211 355 26294ft 287kts
29-Dec-20 13:12 47.312223 -122.855287 356 25419ft 308kts
29-Dec-20 13:13 47.405953 -122.842309 357 23632ft 321kts
29-Dec-20 13:14 47.503632 -122.828767 357 21775ft 322kts
29-Dec-20 13:15 47.598576 -122.815569 358 19962ft 320kts
29-Dec-20 13:16 47.695036 -122.802115 359 18096ft 316kts
29-Dec-20 13:17 47.789434 -122.788893 359 16251ft 311kts
29-Dec-20 13:18 47.879089 -122.776310 0 14290ft 309kts
29-Dec-20 13:19 47.965861 -122.764065 0 12323ft 299kts
29-Dec-20 13:20 48.048886 -122.752321 1 10636ft 289kts
29-Dec-20 13:21 48.131080 -122.740664 2 8990ft 289kts
29-Dec-20 13:22 48.213561 -122.728900 3 7335ft 285kts
29-Dec-20 13:23 48.289411 -122.743050 342 6804ft 262kts
29-Dec-20 13:24 48.363278 -122.773979 343 5758ft 263kts
29-Dec-20 13:25 48.437714 -122.805228 344 4695ft 258kts
29-Dec-20 13:26 48.507511 -122.834568 341 3639ft 237kts
29-Dec-20 13:27 48.564447 -122.860337 343 2978ft 188kts
29-Dec-20 13:28 48.609504 -122.873775 344 2425ft 154kts
29-Dec-20 13:29 48.650321 -122.891122 343 1373ft 133kts
29-Dec-20 13:30 48.677151 -122.902567 344 730ft 89kts
29-Dec-20 13:31 48.700751 -122.910699 0 132ft 78kts
29-Dec-20 13:32 48.709632 -122.909950 197 15ft 2kts
29-Dec-20 13:33 48.709171 -122.909984 180 17ft 3kts
29-Dec-20 13:34 48.707795 -122.909991 179 25ft 12kts
29-Dec-20 13:35 48.705070 -122.909988 179 36ft 7kts
29-Dec-20 13:36 48.705504 -122.909461 359 36ft 0kts
29-Dec-20 13:37 48.705504 -122.909461 359 36ft 0kts
29-Dec-20 13:39 48.705504 -122.909461 359 36ft 0kts
29-Dec-20 13:40 48.705504 -122.909461 359 36ft 0kts
29-Dec-20 13:41 48.705504 -122.909461 359 36ft 0kts
29-Dec-20 13:42 48.705504 -122.909461 359 36ft 0kts

Navigation Log

Ident Type
Flight plan parsing failed, navigation log unavailable